sensor_id;sensor_type;location;lat;lon;timestamp;P1;durP1;ratioP1;P2;durP2;ratioP2
39680;SDS011;26327;42.550;23.120;2023-05-07T00:01:03;9.02;;;5.90;;
39680;SDS011;26327;42.550;23.120;2023-05-07T00:03:30;9.27;;;5.80;;
39680;SDS011;26327;42.550;23.120;2023-05-07T00:05:56;8.00;;;5.40;;
39680;SDS011;26327;42.550;23.120;2023-05-07T00:08:21;7.57;;;5.40;;
39680;SDS011;26327;42.550;23.120;2023-05-07T00:10:47;7.90;;;5.50;;
39680;SDS011;26327;42.550;23.120;2023-05-07T00:13:12;8.63;;;5.72;;
39680;SDS011;26327;42.550;23.120;2023-05-07T00:15:37;9.57;;;5.55;;
39680;SDS011;26327;42.550;23.120;2023-05-07T00:18:03;9.25;;;5.22;;
39680;SDS011;26327;42.550;23.120;2023-05-07T00:20:28;14.75;;;6.72;;
39680;SDS011;26327;42.550;23.120;2023-05-07T00:22:54;8.30;;;5.85;;
39680;SDS011;26327;42.550;23.120;2023-05-07T00:25:19;8.95;;;5.47;;
39680;SDS011;26327;42.550;23.120;2023-05-07T00:27:45;8.00;;;6.00;;
39680;SDS011;26327;42.550;23.120;2023-05-07T00:30:11;10.45;;;5.72;;
39680;SDS011;26327;42.550;23.120;2023-05-07T00:32:36;8.52;;;6.00;;
39680;SDS011;26327;42.550;23.120;2023-05-07T00:35:03;8.05;;;5.55;;
39680;SDS011;26327;42.550;23.120;2023-05-07T00:37:29;9.25;;;5.93;;
39680;SDS011;26327;42.550;23.120;2023-05-07T00:39:55;7.05;;;5.40;;
39680;SDS011;26327;42.550;23.120;2023-05-07T00:42:20;8.00;;;6.05;;
39680;SDS011;26327;42.550;23.120;2023-05-07T00:44:46;10.30;;;6.35;;
39680;SDS011;26327;42.550;23.120;2023-05-07T00:47:11;10.65;;;5.90;;
39680;SDS011;26327;42.550;23.120;2023-05-07T00:49:38;9.65;;;5.35;;
39680;SDS011;26327;42.550;23.120;2023-05-07T00:52:06;8.55;;;5.35;;
39680;SDS011;26327;42.550;23.120;2023-05-07T00:54:33;6.72;;;5.03;;
39680;SDS011;26327;42.550;23.120;2023-05-07T00:56:59;12.05;;;5.50;;
39680;SDS011;26327;42.550;23.120;2023-05-07T00:59:25;7.53;;;5.57;;
39680;SDS011;26327;42.550;23.120;2023-05-07T01:01:51;7.22;;;5.30;;
39680;SDS011;26327;42.550;23.120;2023-05-07T01:04:17;9.93;;;4.68;;
39680;SDS011;26327;42.550;23.120;2023-05-07T01:06:42;9.32;;;5.55;;
39680;SDS011;26327;42.550;23.120;2023-05-07T01:09:10;7.90;;;5.35;;
39680;SDS011;26327;42.550;23.120;2023-05-07T01:11:36;8.30;;;5.38;;
39680;SDS011;26327;42.550;23.120;2023-05-07T01:14:03;8.77;;;5.32;;
39680;SDS011;26327;42.550;23.120;2023-05-07T01:16:29;8.90;;;5.68;;
39680;SDS011;26327;42.550;23.120;2023-05-07T01:18:54;7.88;;;5.38;;
39680;SDS011;26327;42.550;23.120;2023-05-07T01:21:21;8.35;;;5.70;;
39680;SDS011;26327;42.550;23.120;2023-05-07T01:23:51;11.27;;;5.72;;
39680;SDS011;26327;42.550;23.120;2023-05-07T01:26:17;9.65;;;5.50;;
39680;SDS011;26327;42.550;23.120;2023-05-07T01:28:44;7.70;;;5.45;;
39680;SDS011;26327;42.550;23.120;2023-05-07T01:31:10;12.15;;;6.03;;
39680;SDS011;26327;42.550;23.120;2023-05-07T01:33:38;7.68;;;5.00;;
39680;SDS011;26327;42.550;23.120;2023-05-07T01:36:08;7.95;;;5.30;;
39680;SDS011;26327;42.550;23.120;2023-05-07T01:38:36;7.72;;;4.80;;
39680;SDS011;26327;42.550;23.120;2023-05-07T01:41:02;7.82;;;5.45;;
39680;SDS011;26327;42.550;23.120;2023-05-07T01:43:28;9.23;;;5.95;;
39680;SDS011;26327;42.550;23.120;2023-05-07T01:45:55;8.20;;;5.30;;
39680;SDS011;26327;42.550;23.120;2023-05-07T01:48:22;8.55;;;5.75;;
39680;SDS011;26327;42.550;23.120;2023-05-07T01:50:48;8.75;;;5.85;;
39680;SDS011;26327;42.550;23.120;2023-05-07T01:53:14;7.93;;;5.35;;
39680;SDS011;26327;42.550;23.120;2023-05-07T01:55:39;8.77;;;6.13;;
39680;SDS011;26327;42.550;23.120;2023-05-07T01:58:05;9.73;;;6.38;;
39680;SDS011;26327;42.550;23.120;2023-05-07T02:00:30;11.00;;;5.65;;
39680;SDS011;26327;42.550;23.120;2023-05-07T02:02:56;8.27;;;5.50;;
39680;SDS011;26327;42.550;23.120;2023-05-07T02:05:22;10.05;;;5.28;;
39680;SDS011;26327;42.550;23.120;2023-05-07T02:07:47;8.32;;;5.10;;
39680;SDS011;26327;42.550;23.120;2023-05-07T02:10:13;7.10;;;4.90;;
39680;SDS011;26327;42.550;23.120;2023-05-07T02:12:38;7.72;;;5.65;;
39680;SDS011;26327;42.550;23.120;2023-05-07T02:15:03;11.13;;;6.30;;
39680;SDS011;26327;42.550;23.120;2023-05-07T02:17:29;9.13;;;5.72;;
39680;SDS011;26327;42.550;23.120;2023-05-07T02:19:56;11.95;;;6.97;;
39680;SDS011;26327;42.550;23.120;2023-05-07T02:22:22;8.95;;;5.72;;
39680;SDS011;26327;42.550;23.120;2023-05-07T02:24:47;7.20;;;5.30;;
39680;SDS011;26327;42.550;23.120;2023-05-07T02:27:14;8.48;;;5.55;;
39680;SDS011;26327;42.550;23.120;2023-05-07T02:29:39;7.85;;;5.00;;
39680;SDS011;26327;42.550;23.120;2023-05-07T02:32:05;12.85;;;6.60;;
39680;SDS011;26327;42.550;23.120;2023-05-07T02:34:30;10.23;;;5.88;;
39680;SDS011;26327;42.550;23.120;2023-05-07T02:36:55;8.00;;;5.70;;
39680;SDS011;26327;42.550;23.120;2023-05-07T02:39:21;10.07;;;6.18;;
39680;SDS011;26327;42.550;23.120;2023-05-07T02:41:46;10.02;;;6.50;;
39680;SDS011;26327;42.550;23.120;2023-05-07T02:44:11;9.60;;;6.38;;
39680;SDS011;26327;42.550;23.120;2023-05-07T02:46:37;10.00;;;6.13;;
39680;SDS011;26327;42.550;23.120;2023-05-07T02:49:02;8.57;;;5.53;;
39680;SDS011;26327;42.550;23.120;2023-05-07T02:51:30;9.00;;;5.55;;
39680;SDS011;26327;42.550;23.120;2023-05-07T02:53:55;9.52;;;5.95;;
39680;SDS011;26327;42.550;23.120;2023-05-07T02:56:21;8.85;;;5.72;;
39680;SDS011;26327;42.550;23.120;2023-05-07T02:58:46;9.43;;;5.60;;
39680;SDS011;26327;42.550;23.120;2023-05-07T03:01:12;7.95;;;5.50;;
39680;SDS011;26327;42.550;23.120;2023-05-07T03:03:39;9.57;;;5.95;;
39680;SDS011;26327;42.550;23.120;2023-05-07T03:06:05;9.13;;;5.97;;
39680;SDS011;26327;42.550;23.120;2023-05-07T03:08:31;8.93;;;5.82;;
39680;SDS011;26327;42.550;23.120;2023-05-07T03:10:57;7.88;;;6.05;;
39680;SDS011;26327;42.550;23.120;2023-05-07T03:13:22;7.45;;;5.28;;
39680;SDS011;26327;42.550;23.120;2023-05-07T03:15:48;7.70;;;5.45;;
39680;SDS011;26327;42.550;23.120;2023-05-07T03:18:13;9.55;;;5.85;;
39680;SDS011;26327;42.550;23.120;2023-05-07T03:20:38;8.15;;;5.50;;
39680;SDS011;26327;42.550;23.120;2023-05-07T03:23:04;9.82;;;5.45;;
39680;SDS011;26327;42.550;23.120;2023-05-07T03:25:30;9.38;;;5.50;;
39680;SDS011;26327;42.550;23.120;2023-05-07T03:27:55;8.57;;;5.47;;
39680;SDS011;26327;42.550;23.120;2023-05-07T03:30:21;7.60;;;5.28;;
39680;SDS011;26327;42.550;23.120;2023-05-07T03:32:47;9.00;;;5.20;;
39680;SDS011;26327;42.550;23.120;2023-05-07T03:35:12;8.18;;;5.55;;
39680;SDS011;26327;42.550;23.120;2023-05-07T03:37:38;7.28;;;5.35;;
39680;SDS011;26327;42.550;23.120;2023-05-07T03:40:04;8.68;;;5.88;;
39680;SDS011;26327;42.550;23.120;2023-05-07T03:42:30;10.52;;;5.38;;
39680;SDS011;26327;42.550;23.120;2023-05-07T03:44:55;6.82;;;5.00;;
39680;SDS011;26327;42.550;23.120;2023-05-07T03:47:21;7.88;;;5.05;;
39680;SDS011;26327;42.550;23.120;2023-05-07T03:49:46;9.23;;;5.60;;
39680;SDS011;26327;42.550;23.120;2023-05-07T03:52:13;8.90;;;5.55;;
39680;SDS011;26327;42.550;23.120;2023-05-07T03:54:38;10.80;;;5.68;;
39680;SDS011;26327;42.550;23.120;2023-05-07T03:57:04;8.95;;;5.78;;
39680;SDS011;26327;42.550;23.120;2023-05-07T03:59:29;11.65;;;5.97;;
39680;SDS011;26327;42.550;23.120;2023-05-07T04:01:54;8.02;;;5.78;;
39680;SDS011;26327;42.550;23.120;2023-05-07T04:04:20;9.32;;;5.90;;
39680;SDS011;26327;42.550;23.120;2023-05-07T04:06:46;10.38;;;6.45;;
39680;SDS011;26327;42.550;23.120;2023-05-07T04:09:11;38.75;;;23.80;;
39680;SDS011;26327;42.550;23.120;2023-05-07T04:11:37;24.88;;;20.58;;
39680;SDS011;26327;42.550;23.120;2023-05-07T04:14:02;14.18;;;8.15;;
39680;SDS011;26327;42.550;23.120;2023-05-07T04:16:27;14.73;;;10.32;;
39680;SDS011;26327;42.550;23.120;2023-05-07T04:18:53;17.30;;;10.98;;
39680;SDS011;26327;42.550;23.120;2023-05-07T04:21:18;13.35;;;9.93;;
39680;SDS011;26327;42.550;23.120;2023-05-07T04:23:48;12.23;;;8.55;;
39680;SDS011;26327;42.550;23.120;2023-05-07T04:26:14;16.65;;;8.27;;
39680;SDS011;26327;42.550;23.120;2023-05-07T04:28:40;10.15;;;6.93;;
39680;SDS011;26327;42.550;23.120;2023-05-07T04:31:05;10.70;;;7.35;;
39680;SDS011;26327;42.550;23.120;2023-05-07T04:33:31;9.70;;;7.25;;
39680;SDS011;26327;42.550;23.120;2023-05-07T04:35:57;12.48;;;6.82;;
39680;SDS011;26327;42.550;23.120;2023-05-07T04:38:22;15.15;;;7.80;;
39680;SDS011;26327;42.550;23.120;2023-05-07T04:40:48;10.85;;;7.68;;
39680;SDS011;26327;42.550;23.120;2023-05-07T04:43:14;11.48;;;7.95;;
39680;SDS011;26327;42.550;23.120;2023-05-07T04:45:39;12.02;;;7.07;;
39680;SDS011;26327;42.550;23.120;2023-05-07T04:48:06;9.18;;;6.53;;
39680;SDS011;26327;42.550;23.120;2023-05-07T04:50:32;11.20;;;7.10;;
39680;SDS011;26327;42.550;23.120;2023-05-07T04:52:57;11.25;;;6.70;;
39680;SDS011;26327;42.550;23.120;2023-05-07T04:55:23;8.35;;;6.13;;
39680;SDS011;26327;42.550;23.120;2023-05-07T04:57:48;13.48;;;6.13;;
39680;SDS011;26327;42.550;23.120;2023-05-07T05:00:14;7.45;;;5.40;;
39680;SDS011;26327;42.550;23.120;2023-05-07T05:02:40;11.88;;;6.25;;
39680;SDS011;26327;42.550;23.120;2023-05-07T05:05:06;9.73;;;7.25;;
39680;SDS011;26327;42.550;23.120;2023-05-07T05:07:32;9.18;;;6.47;;
39680;SDS011;26327;42.550;23.120;2023-05-07T05:09:57;11.05;;;6.45;;
39680;SDS011;26327;42.550;23.120;2023-05-07T05:12:23;12.80;;;7.72;;
39680;SDS011;26327;42.550;23.120;2023-05-07T05:14:48;12.43;;;7.15;;
39680;SDS011;26327;42.550;23.120;2023-05-07T05:17:13;17.05;;;8.57;;
39680;SDS011;26327;42.550;23.120;2023-05-07T05:19:39;9.18;;;6.88;;
39680;SDS011;26327;42.550;23.120;2023-05-07T05:22:04;14.18;;;7.60;;
39680;SDS011;26327;42.550;23.120;2023-05-07T05:24:30;12.95;;;7.57;;
39680;SDS011;26327;42.550;23.120;2023-05-07T05:26:56;12.63;;;7.90;;
39680;SDS011;26327;42.550;23.120;2023-05-07T05:29:21;16.98;;;7.53;;
39680;SDS011;26327;42.550;23.120;2023-05-07T05:31:47;13.77;;;7.57;;
39680;SDS011;26327;42.550;23.120;2023-05-07T05:34:12;17.40;;;8.95;;
39680;SDS011;26327;42.550;23.120;2023-05-07T05:36:38;19.35;;;9.10;;
39680;SDS011;26327;42.550;23.120;2023-05-07T05:39:03;25.38;;;9.82;;
39680;SDS011;26327;42.550;23.120;2023-05-07T05:41:29;15.85;;;9.07;;
39680;SDS011;26327;42.550;23.120;2023-05-07T05:43:55;17.02;;;7.50;;
39680;SDS011;26327;42.550;23.120;2023-05-07T05:46:21;16.48;;;7.63;;
39680;SDS011;26327;42.550;23.120;2023-05-07T05:48:46;15.23;;;7.63;;
39680;SDS011;26327;42.550;23.120;2023-05-07T05:51:11;17.30;;;8.05;;
39680;SDS011;26327;42.550;23.120;2023-05-07T05:53:37;23.08;;;8.90;;
39680;SDS011;26327;42.550;23.120;2023-05-07T05:56:02;15.82;;;7.97;;
39680;SDS011;26327;42.550;23.120;2023-05-07T05:58:28;18.42;;;7.93;;
39680;SDS011;26327;42.550;23.120;2023-05-07T06:00:53;15.85;;;8.18;;
39680;SDS011;26327;42.550;23.120;2023-05-07T06:03:19;15.45;;;7.88;;
39680;SDS011;26327;42.550;23.120;2023-05-07T06:05:44;18.67;;;7.60;;
39680;SDS011;26327;42.550;23.120;2023-05-07T06:08:10;12.90;;;7.28;;
39680;SDS011;26327;42.550;23.120;2023-05-07T06:10:36;16.75;;;8.32;;
39680;SDS011;26327;42.550;23.120;2023-05-07T06:13:02;15.18;;;8.05;;
39680;SDS011;26327;42.550;23.120;2023-05-07T06:15:28;16.83;;;7.35;;
39680;SDS011;26327;42.550;23.120;2023-05-07T06:17:53;15.45;;;7.90;;
39680;SDS011;26327;42.550;23.120;2023-05-07T06:20:20;18.85;;;8.38;;
39680;SDS011;26327;42.550;23.120;2023-05-07T06:22:46;13.90;;;6.43;;
39680;SDS011;26327;42.550;23.120;2023-05-07T06:25:11;10.95;;;6.30;;
39680;SDS011;26327;42.550;23.120;2023-05-07T06:27:37;13.93;;;7.00;;
39680;SDS011;26327;42.550;23.120;2023-05-07T06:30:02;14.60;;;6.90;;
39680;SDS011;26327;42.550;23.120;2023-05-07T06:32:28;14.02;;;6.90;;
39680;SDS011;26327;42.550;23.120;2023-05-07T06:34:53;11.45;;;6.70;;
39680;SDS011;26327;42.550;23.120;2023-05-07T06:37:18;9.85;;;5.32;;
39680;SDS011;26327;42.550;23.120;2023-05-07T06:39:44;8.93;;;5.55;;
39680;SDS011;26327;42.550;23.120;2023-05-07T06:42:09;12.18;;;5.15;;
39680;SDS011;26327;42.550;23.120;2023-05-07T06:44:35;7.65;;;4.10;;
39680;SDS011;26327;42.550;23.120;2023-05-07T06:47:00;8.43;;;5.22;;
39680;SDS011;26327;42.550;23.120;2023-05-07T06:49:26;9.60;;;4.93;;
39680;SDS011;26327;42.550;23.120;2023-05-07T06:51:51;8.80;;;5.60;;
39680;SDS011;26327;42.550;23.120;2023-05-07T06:54:16;8.60;;;5.00;;
39680;SDS011;26327;42.550;23.120;2023-05-07T06:56:42;9.05;;;5.15;;
39680;SDS011;26327;42.550;23.120;2023-05-07T06:59:07;10.50;;;5.90;;
39680;SDS011;26327;42.550;23.120;2023-05-07T07:01:33;12.50;;;5.93;;
39680;SDS011;26327;42.550;23.120;2023-05-07T07:03:58;9.90;;;5.03;;
39680;SDS011;26327;42.550;23.120;2023-05-07T07:06:24;14.43;;;5.53;;
39680;SDS011;26327;42.550;23.120;2023-05-07T07:08:50;8.18;;;4.95;;
39680;SDS011;26327;42.550;23.120;2023-05-07T07:11:16;9.90;;;5.75;;
39680;SDS011;26327;42.550;23.120;2023-05-07T07:13:41;9.73;;;5.75;;
39680;SDS011;26327;42.550;23.120;2023-05-07T07:16:07;11.23;;;5.25;;
39680;SDS011;26327;42.550;23.120;2023-05-07T07:18:33;13.75;;;5.50;;
39680;SDS011;26327;42.550;23.120;2023-05-07T07:20:59;11.20;;;5.82;;
39680;SDS011;26327;42.550;23.120;2023-05-07T07:23:24;9.18;;;5.97;;
39680;SDS011;26327;42.550;23.120;2023-05-07T07:25:50;6.60;;;4.43;;
39680;SDS011;26327;42.550;23.120;2023-05-07T07:28:15;9.05;;;5.30;;
39680;SDS011;26327;42.550;23.120;2023-05-07T07:30:41;10.45;;;5.18;;
39680;SDS011;26327;42.550;23.120;2023-05-07T07:33:06;6.72;;;4.15;;
39680;SDS011;26327;42.550;23.120;2023-05-07T07:35:32;10.00;;;4.00;;
39680;SDS011;26327;42.550;23.120;2023-05-07T07:37:57;10.35;;;4.43;;
39680;SDS011;26327;42.550;23.120;2023-05-07T07:40:23;7.30;;;4.25;;
39680;SDS011;26327;42.550;23.120;2023-05-07T07:42:50;8.88;;;4.55;;
39680;SDS011;26327;42.550;23.120;2023-05-07T07:45:15;9.70;;;4.93;;
39680;SDS011;26327;42.550;23.120;2023-05-07T07:47:41;7.82;;;5.32;;
39680;SDS011;26327;42.550;23.120;2023-05-07T07:50:06;7.63;;;3.13;;
39680;SDS011;26327;42.550;23.120;2023-05-07T07:52:32;6.13;;;3.67;;
39680;SDS011;26327;42.550;23.120;2023-05-07T07:54:58;6.63;;;3.80;;
39680;SDS011;26327;42.550;23.120;2023-05-07T07:57:24;9.93;;;4.28;;
39680;SDS011;26327;42.550;23.120;2023-05-07T07:59:49;6.35;;;3.63;;
39680;SDS011;26327;42.550;23.120;2023-05-07T08:02:15;7.40;;;4.18;;
39680;SDS011;26327;42.550;23.120;2023-05-07T08:04:40;6.55;;;3.67;;
39680;SDS011;26327;42.550;23.120;2023-05-07T08:07:08;5.03;;;3.65;;
39680;SDS011;26327;42.550;23.120;2023-05-07T08:09:34;8.70;;;4.00;;
39680;SDS011;26327;42.550;23.120;2023-05-07T08:12:00;8.45;;;3.92;;
39680;SDS011;26327;42.550;23.120;2023-05-07T08:14:26;8.18;;;4.38;;
39680;SDS011;26327;42.550;23.120;2023-05-07T08:16:53;5.53;;;3.95;;
39680;SDS011;26327;42.550;23.120;2023-05-07T08:19:19;5.68;;;3.78;;
39680;SDS011;26327;42.550;23.120;2023-05-07T08:21:45;6.82;;;3.63;;
39680;SDS011;26327;42.550;23.120;2023-05-07T08:24:12;7.53;;;4.10;;
39680;SDS011;26327;42.550;23.120;2023-05-07T08:26:38;9.30;;;7.70;;
39680;SDS011;26327;42.550;23.120;2023-05-07T08:29:04;9.63;;;7.30;;
39680;SDS011;26327;42.550;23.120;2023-05-07T08:31:29;16.55;;;13.50;;
39680;SDS011;26327;42.550;23.120;2023-05-07T08:33:55;8.50;;;6.32;;
39680;SDS011;26327;42.550;23.120;2023-05-07T08:36:22;9.10;;;3.88;;
39680;SDS011;26327;42.550;23.120;2023-05-07T08:38:47;6.20;;;4.43;;
39680;SDS011;26327;42.550;23.120;2023-05-07T08:41:12;10.25;;;4.57;;
39680;SDS011;26327;42.550;23.120;2023-05-07T08:43:38;8.85;;;4.25;;
39680;SDS011;26327;42.550;23.120;2023-05-07T08:46:06;6.32;;;3.47;;
39680;SDS011;26327;42.550;23.120;2023-05-07T08:48:34;6.72;;;3.90;;
39680;SDS011;26327;42.550;23.120;2023-05-07T08:51:01;8.52;;;3.97;;
39680;SDS011;26327;42.550;23.120;2023-05-07T08:53:26;6.90;;;3.65;;
39680;SDS011;26327;42.550;23.120;2023-05-07T08:55:52;6.65;;;3.50;;
39680;SDS011;26327;42.550;23.120;2023-05-07T08:58:18;7.68;;;3.92;;
39680;SDS011;26327;42.550;23.120;2023-05-07T09:00:44;7.97;;;3.67;;
39680;SDS011;26327;42.550;23.120;2023-05-07T09:03:09;8.45;;;4.07;;
39680;SDS011;26327;42.550;23.120;2023-05-07T09:05:37;5.95;;;3.78;;
39680;SDS011;26327;42.550;23.120;2023-05-07T09:08:03;6.32;;;3.80;;
39680;SDS011;26327;42.550;23.120;2023-05-07T09:10:31;8.10;;;4.20;;
39680;SDS011;26327;42.550;23.120;2023-05-07T09:12:58;5.90;;;4.18;;
39680;SDS011;26327;42.550;23.120;2023-05-07T09:15:23;9.68;;;5.70;;
39680;SDS011;26327;42.550;23.120;2023-05-07T09:17:50;9.48;;;4.55;;
39680;SDS011;26327;42.550;23.120;2023-05-07T09:20:15;4.80;;;3.25;;
39680;SDS011;26327;42.550;23.120;2023-05-07T09:22:41;5.65;;;3.80;;
39680;SDS011;26327;42.550;23.120;2023-05-07T09:25:07;11.27;;;9.73;;
39680;SDS011;26327;42.550;23.120;2023-05-07T09:27:34;7.95;;;4.32;;
39680;SDS011;26327;42.550;23.120;2023-05-07T09:30:02;8.57;;;3.17;;
39680;SDS011;26327;42.550;23.120;2023-05-07T09:32:28;5.53;;;3.83;;
39680;SDS011;26327;42.550;23.120;2023-05-07T09:34:55;6.43;;;3.63;;
39680;SDS011;26327;42.550;23.120;2023-05-07T09:37:21;4.80;;;3.72;;
39680;SDS011;26327;42.550;23.120;2023-05-07T09:39:47;4.28;;;3.60;;
39680;SDS011;26327;42.550;23.120;2023-05-07T09:42:14;3.97;;;3.20;;
39680;SDS011;26327;42.550;23.120;2023-05-07T09:44:40;5.22;;;3.40;;
39680;SDS011;26327;42.550;23.120;2023-05-07T09:47:06;5.65;;;3.10;;
39680;SDS011;26327;42.550;23.120;2023-05-07T09:49:35;4.70;;;3.55;;
39680;SDS011;26327;42.550;23.120;2023-05-07T09:52:02;4.82;;;3.10;;
39680;SDS011;26327;42.550;23.120;2023-05-07T09:56:57;5.88;;;3.30;;
39680;SDS011;26327;42.550;23.120;2023-05-07T09:59:23;3.78;;;3.03;;
39680;SDS011;26327;42.550;23.120;2023-05-07T10:01:50;5.07;;;3.30;;
39680;SDS011;26327;42.550;23.120;2023-05-07T10:04:18;7.13;;;2.88;;
39680;SDS011;26327;42.550;23.120;2023-05-07T10:06:45;4.43;;;3.22;;
39680;SDS011;26327;42.550;23.120;2023-05-07T10:09:11;4.22;;;3.17;;
39680;SDS011;26327;42.550;23.120;2023-05-07T10:11:38;5.85;;;3.30;;
39680;SDS011;26327;42.550;23.120;2023-05-07T10:14:05;8.05;;;3.72;;
39680;SDS011;26327;42.550;23.120;2023-05-07T10:16:31;6.07;;;3.17;;
39680;SDS011;26327;42.550;23.120;2023-05-07T10:19:01;6.47;;;3.40;;
39680;SDS011;26327;42.550;23.120;2023-05-07T10:23:59;4.90;;;3.05;;
39680;SDS011;26327;42.550;23.120;2023-05-07T10:26:35;24.85;;;8.20;;
39680;SDS011;26327;42.550;23.120;2023-05-07T10:29:04;7.55;;;3.55;;
39680;SDS011;26327;42.550;23.120;2023-05-07T10:31:40;6.18;;;3.25;;
39680;SDS011;26327;42.550;23.120;2023-05-07T10:34:15;3.80;;;3.10;;
39680;SDS011;26327;42.550;23.120;2023-05-07T10:36:44;6.78;;;3.10;;
39680;SDS011;26327;42.550;23.120;2023-05-07T10:39:11;3.83;;;2.90;;
39680;SDS011;26327;42.550;23.120;2023-05-07T10:41:36;6.78;;;3.35;;
39680;SDS011;26327;42.550;23.120;2023-05-07T10:44:02;4.68;;;2.90;;
39680;SDS011;26327;42.550;23.120;2023-05-07T10:46:27;5.38;;;3.30;;
39680;SDS011;26327;42.550;23.120;2023-05-07T10:51:28;5.28;;;3.50;;
39680;SDS011;26327;42.550;23.120;2023-05-07T10:56:36;4.53;;;3.13;;
39680;SDS011;26327;42.550;23.120;2023-05-07T11:01:55;4.82;;;3.15;;
39680;SDS011;26327;42.550;23.120;2023-05-07T11:04:22;3.65;;;2.75;;
39680;SDS011;26327;42.550;23.120;2023-05-07T11:09:55;4.90;;;3.60;;
39680;SDS011;26327;42.550;23.120;2023-05-07T11:15:01;4.75;;;3.25;;
39680;SDS011;26327;42.550;23.120;2023-05-07T11:17:55;4.95;;;3.20;;
39680;SDS011;26327;42.550;23.120;2023-05-07T11:20:43;4.75;;;3.53;;
39680;SDS011;26327;42.550;23.120;2023-05-07T11:28:30;6.47;;;2.95;;
39680;SDS011;26327;42.550;23.120;2023-05-07T11:31:01;4.15;;;2.92;;
39680;SDS011;26327;42.550;23.120;2023-05-07T11:33:27;4.70;;;3.17;;
39680;SDS011;26327;42.550;23.120;2023-05-07T11:35:53;6.75;;;3.50;;
39680;SDS011;26327;42.550;23.120;2023-05-07T11:38:18;5.57;;;2.90;;
39680;SDS011;26327;42.550;23.120;2023-05-07T11:40:51;4.47;;;2.85;;
39680;SDS011;26327;42.550;23.120;2023-05-07T11:43:21;3.72;;;3.00;;
39680;SDS011;26327;42.550;23.120;2023-05-07T11:45:47;4.00;;;2.90;;
39680;SDS011;26327;42.550;23.120;2023-05-07T11:48:14;4.15;;;3.05;;
39680;SDS011;26327;42.550;23.120;2023-05-07T11:53:38;4.22;;;3.20;;
39680;SDS011;26327;42.550;23.120;2023-05-07T11:56:09;4.80;;;2.92;;
39680;SDS011;26327;42.550;23.120;2023-05-07T11:58:39;5.22;;;3.67;;
39680;SDS011;26327;42.550;23.120;2023-05-07T12:01:06;4.70;;;3.28;;
39680;SDS011;26327;42.550;23.120;2023-05-07T12:03:34;4.80;;;3.00;;
39680;SDS011;26327;42.550;23.120;2023-05-07T12:06:00;4.15;;;2.90;;
39680;SDS011;26327;42.550;23.120;2023-05-07T12:08:25;3.88;;;2.88;;
39680;SDS011;26327;42.550;23.120;2023-05-07T12:10:51;3.55;;;2.83;;
39680;SDS011;26327;42.550;23.120;2023-05-07T12:15:46;4.00;;;2.85;;
39680;SDS011;26327;42.550;23.120;2023-05-07T12:18:15;4.53;;;3.37;;
39680;SDS011;26327;42.550;23.120;2023-05-07T12:20:40;4.03;;;2.50;;
39680;SDS011;26327;42.550;23.120;2023-05-07T12:23:06;3.60;;;2.53;;
39680;SDS011;26327;42.550;23.120;2023-05-07T12:25:33;4.43;;;2.90;;
39680;SDS011;26327;42.550;23.120;2023-05-07T12:28:18;5.05;;;2.97;;
39680;SDS011;26327;42.550;23.120;2023-05-07T12:30:44;4.90;;;2.78;;
39680;SDS011;26327;42.550;23.120;2023-05-07T12:33:11;5.47;;;3.22;;
39680;SDS011;26327;42.550;23.120;2023-05-07T12:35:40;6.80;;;3.00;;
39680;SDS011;26327;42.550;23.120;2023-05-07T12:40:37;9.63;;;3.95;;
39680;SDS011;26327;42.550;23.120;2023-05-07T12:43:04;4.32;;;2.70;;
39680;SDS011;26327;42.550;23.120;2023-05-07T12:45:30;6.15;;;3.13;;
39680;SDS011;26327;42.550;23.120;2023-05-07T12:47:55;6.35;;;3.15;;
39680;SDS011;26327;42.550;23.120;2023-05-07T12:50:21;4.03;;;3.00;;
39680;SDS011;26327;42.550;23.120;2023-05-07T12:52:48;5.55;;;3.03;;
39680;SDS011;26327;42.550;23.120;2023-05-07T12:55:13;5.82;;;3.05;;
39680;SDS011;26327;42.550;23.120;2023-05-07T12:57:47;5.70;;;3.13;;
39680;SDS011;26327;42.550;23.120;2023-05-07T13:00:14;3.60;;;2.63;;
39680;SDS011;26327;42.550;23.120;2023-05-07T13:02:40;3.42;;;2.65;;
39680;SDS011;26327;42.550;23.120;2023-05-07T13:05:09;4.50;;;2.85;;
39680;SDS011;26327;42.550;23.120;2023-05-07T13:07:34;4.00;;;2.63;;
39680;SDS011;26327;42.550;23.120;2023-05-07T13:10:00;4.78;;;2.75;;
39680;SDS011;26327;42.550;23.120;2023-05-07T13:12:25;4.78;;;2.53;;
39680;SDS011;26327;42.550;23.120;2023-05-07T13:14:51;4.65;;;2.75;;
39680;SDS011;26327;42.550;23.120;2023-05-07T13:17:16;5.15;;;2.78;;
39680;SDS011;26327;42.550;23.120;2023-05-07T13:19:43;5.28;;;3.00;;
39680;SDS011;26327;42.550;23.120;2023-05-07T13:22:09;5.60;;;2.90;;
39680;SDS011;26327;42.550;23.120;2023-05-07T13:24:34;6.30;;;2.80;;
39680;SDS011;26327;42.550;23.120;2023-05-07T13:27:00;7.43;;;2.92;;
39680;SDS011;26327;42.550;23.120;2023-05-07T13:29:25;5.50;;;2.80;;
39680;SDS011;26327;42.550;23.120;2023-05-07T13:31:54;7.40;;;3.63;;
39680;SDS011;26327;42.550;23.120;2023-05-07T13:34:20;5.28;;;3.45;;
39680;SDS011;26327;42.550;23.120;2023-05-07T13:36:45;5.00;;;3.33;;
39680;SDS011;26327;42.550;23.120;2023-05-07T13:39:11;5.78;;;2.85;;
39680;SDS011;26327;42.550;23.120;2023-05-07T13:41:36;6.40;;;3.22;;
39680;SDS011;26327;42.550;23.120;2023-05-07T13:44:01;3.97;;;2.97;;
39680;SDS011;26327;42.550;23.120;2023-05-07T13:46:27;5.68;;;2.78;;
39680;SDS011;26327;42.550;23.120;2023-05-07T13:48:52;4.55;;;2.95;;
39680;SDS011;26327;42.550;23.120;2023-05-07T13:51:18;5.78;;;3.15;;
39680;SDS011;26327;42.550;23.120;2023-05-07T13:53:43;7.72;;;3.38;;
39680;SDS011;26327;42.550;23.120;2023-05-07T13:56:08;5.18;;;2.63;;
39680;SDS011;26327;42.550;23.120;2023-05-07T13:58:34;6.63;;;2.78;;
39680;SDS011;26327;42.550;23.120;2023-05-07T14:01:01;4.40;;;3.22;;
39680;SDS011;26327;42.550;23.120;2023-05-07T14:03:26;4.47;;;2.70;;
39680;SDS011;26327;42.550;23.120;2023-05-07T14:05:52;13.43;;;4.70;;
39680;SDS011;26327;42.550;23.120;2023-05-07T14:08:17;5.85;;;3.17;;
39680;SDS011;26327;42.550;23.120;2023-05-07T14:10:44;5.82;;;3.08;;
39680;SDS011;26327;42.550;23.120;2023-05-07T14:13:11;5.47;;;3.40;;
39680;SDS011;26327;42.550;23.120;2023-05-07T14:15:36;5.88;;;3.25;;
39680;SDS011;26327;42.550;23.120;2023-05-07T14:18:02;5.93;;;3.17;;
39680;SDS011;26327;42.550;23.120;2023-05-07T14:20:27;6.78;;;3.60;;
39680;SDS011;26327;42.550;23.120;2023-05-07T14:22:53;7.13;;;3.58;;
39680;SDS011;26327;42.550;23.120;2023-05-07T14:25:18;8.35;;;3.22;;
39680;SDS011;26327;42.550;23.120;2023-05-07T14:27:44;7.18;;;3.20;;
39680;SDS011;26327;42.550;23.120;2023-05-07T14:30:09;5.32;;;3.30;;
39680;SDS011;26327;42.550;23.120;2023-05-07T14:32:35;11.98;;;2.75;;
39680;SDS011;26327;42.550;23.120;2023-05-07T14:35:00;5.38;;;3.30;;
39680;SDS011;26327;42.550;23.120;2023-05-07T14:37:26;7.05;;;3.33;;
39680;SDS011;26327;42.550;23.120;2023-05-07T14:39:52;9.13;;;3.90;;
39680;SDS011;26327;42.550;23.120;2023-05-07T14:42:17;4.32;;;3.08;;
39680;SDS011;26327;42.550;23.120;2023-05-07T14:44:42;7.28;;;3.10;;
39680;SDS011;26327;42.550;23.120;2023-05-07T14:47:09;7.90;;;3.40;;
39680;SDS011;26327;42.550;23.120;2023-05-07T14:49:35;3.50;;;2.63;;
39680;SDS011;26327;42.550;23.120;2023-05-07T14:52:00;6.00;;;3.08;;
39680;SDS011;26327;42.550;23.120;2023-05-07T14:54:26;3.80;;;2.70;;
39680;SDS011;26327;42.550;23.120;2023-05-07T14:56:51;6.53;;;3.55;;